createdAt,value
2017-07-30T00:00:55.788Z,18.44
2017-07-30T00:02:18.262Z,18.42
2017-07-30T00:03:40.782Z,18.45
2017-07-30T00:05:02.381Z,18.36
2017-07-30T00:06:24.860Z,18.39
2017-07-30T00:07:47.010Z,18.42
2017-07-30T00:09:08.521Z,18.35
2017-07-30T00:10:31.031Z,18.35
2017-07-30T00:11:52.880Z,18.3
2017-07-30T00:13:15.312Z,18.35
2017-07-30T00:14:37.780Z,18.33
2017-07-30T00:15:59.600Z,18.32
2017-07-30T00:17:22.090Z,18.36
2017-07-30T00:18:44.516Z,18.39
2017-07-30T00:20:06.696Z,18.35
2017-07-30T00:21:28.641Z,18.25
2017-07-30T00:22:49.848Z,18.41
2017-07-30T00:24:12.201Z,18.33
2017-07-30T00:25:33.841Z,18.42
2017-07-30T00:26:55.749Z,18.37
2017-07-30T00:28:17.369Z,18.42
2017-07-30T00:29:39.843Z,18.35
2017-07-30T00:31:01.683Z,18.37
2017-07-30T00:32:23.830Z,18.33
2017-07-30T00:33:45.337Z,18.27
2017-07-30T00:35:07.468Z,18.29
2017-07-30T00:36:29.713Z,18.27
2017-07-30T00:37:51.269Z,18.26
2017-07-30T00:39:13.552Z,18.23
2017-07-30T00:40:36.370Z,18.23
2017-07-30T00:41:57.941Z,18.29
2017-07-30T00:43:19.782Z,18.26
2017-07-30T00:44:41.970Z,18.36
2017-07-30T00:46:04.412Z,18.37
2017-07-30T00:47:26.681Z,18.41
2017-07-30T00:48:48.591Z,18.35
2017-07-30T00:50:10.804Z,18.29
2017-07-30T00:51:32.661Z,18.33
2017-07-30T00:52:55.263Z,18.39
2017-07-30T00:54:17.420Z,18.44
2017-07-30T00:55:38.960Z,18.39
2017-07-30T00:57:01.359Z,18.44
2017-07-30T00:58:23.580Z,18.45
2017-07-30T00:59:45.465Z,18.44
2017-07-30T01:01:07.622Z,18.5
2017-07-30T01:02:29.769Z,18.65
2017-07-30T01:03:51.300Z,18.63
2017-07-30T01:05:13.779Z,18.58
2017-07-30T01:06:35.957Z,18.51
2017-07-30T01:07:58.520Z,18.37
2017-07-30T01:09:20.689Z,18.27
2017-07-30T01:10:42.618Z,18.23
2017-07-30T01:12:04.129Z,18.2
2017-07-30T01:13:26.628Z,18.12
2017-07-30T01:14:48.160Z,18.1
2017-07-30T01:16:10.294Z,18.11
2017-07-30T01:17:32.146Z,18.02
2017-07-30T01:18:54.239Z,17.99
2017-07-30T01:20:16.392Z,17.99
2017-07-30T01:21:37.910Z,18.02
2017-07-30T01:23:00.069Z,17.95
2017-07-30T01:24:22.147Z,17.87
2017-07-30T01:25:44.051Z,17.96
2017-07-30T01:27:05.930Z,17.87
2017-07-30T01:28:28.066Z,17.87
2017-07-30T01:29:50.889Z,17.82
2017-07-30T01:31:12.790Z,17.86
2017-07-30T01:32:34.635Z,17.84
2017-07-30T01:33:56.759Z,17.81
2017-07-30T01:35:19.201Z,17.82
2017-07-30T01:36:41.499Z,17.84
2017-07-30T01:38:03.329Z,17.79
2017-07-30T01:39:25.175Z,17.77
2017-07-30T01:40:46.659Z,17.84
2017-07-30T01:42:08.809Z,17.84
2017-07-30T01:43:30.740Z,17.79
2017-07-30T01:44:52.950Z,17.79
2017-07-30T01:46:14.859Z,17.75
2017-07-30T01:47:36.481Z,17.81
2017-07-30T01:48:58.619Z,17.82
2017-07-30T01:50:20.799Z,17.86
2017-07-30T01:51:43.210Z,17.86
2017-07-30T01:53:05.370Z,17.9
2017-07-30T01:54:27.235Z,17.84
2017-07-30T01:55:48.749Z,17.87
2017-07-30T01:57:11.166Z,17.79
2017-07-30T01:58:33.650Z,17.71
2017-07-30T01:59:55.478Z,17.72
2017-07-30T02:01:17.989Z,17.74
2017-07-30T02:02:40.179Z,17.62
2017-07-30T02:04:02.117Z,17.63
2017-07-30T02:05:23.989Z,17.68
2017-07-30T02:06:45.491Z,17.59
2017-07-30T02:08:07.677Z,17.58
2017-07-30T02:09:29.861Z,17.55
2017-07-30T02:10:52.002Z,17.54
2017-07-30T02:12:13.840Z,17.49
2017-07-30T02:13:36.310Z,17.52
2017-07-30T02:14:58.178Z,17.54
2017-07-30T02:16:20.460Z,17.59
2017-07-30T02:17:42.266Z,17.55
2017-07-30T02:19:04.762Z,17.54
2017-07-30T02:20:26.903Z,17.58
2017-07-30T02:21:49.197Z,17.46
2017-07-30T02:23:11.120Z,17.46
2017-07-30T02:24:33.939Z,17.49
2017-07-30T02:25:56.409Z,17.54
2017-07-30T02:27:18.657Z,17.51
2017-07-30T02:28:40.489Z,17.52
2017-07-30T02:30:02.589Z,17.54
2017-07-30T02:31:24.432Z,17.54
2017-07-30T02:32:46.891Z,17.54
2017-07-30T02:34:08.819Z,17.68
2017-07-30T02:35:31.363Z,17.55
2017-07-30T02:36:52.901Z,17.62
2017-07-30T02:38:15.066Z,17.54
2017-07-30T02:39:37.291Z,17.62
2017-07-30T02:41:00.019Z,17.68
2017-07-30T02:42:21.547Z,17.56
2017-07-30T02:43:43.710Z,17.59
2017-07-30T02:45:05.281Z,17.49
2017-07-30T02:46:28.007Z,17.51
2017-07-30T02:47:49.526Z,17.59
2017-07-30T02:49:11.372Z,17.64
2017-07-30T02:50:33.870Z,17.68
2017-07-30T02:51:55.628Z,17.59
2017-07-30T02:53:18.183Z,17.58
2017-07-30T02:54:40.007Z,17.54
2017-07-30T02:56:01.950Z,17.46
2017-07-30T02:57:24.049Z,17.54
2017-07-30T02:58:46.199Z,17.51
2017-07-30T03:00:07.492Z,17.55
2017-07-30T03:01:29.041Z,17.54
2017-07-30T03:02:51.928Z,17.54
2017-07-30T03:04:13.752Z,17.66
2017-07-30T03:05:35.960Z,17.74
2017-07-30T03:06:57.818Z,17.64
2017-07-30T03:08:19.892Z,17.66
2017-07-30T03:09:42.164Z,17.71
2017-07-30T03:11:04.318Z,17.63
2017-07-30T03:12:26.561Z,17.62
2017-07-30T03:13:48.340Z,17.56
2017-07-30T03:15:09.856Z,17.52
2017-07-30T03:16:32.340Z,17.51
2017-07-30T03:17:54.790Z,17.58
2017-07-30T03:19:16.872Z,17.55
2017-07-30T03:20:38.780Z,17.62
2017-07-30T03:22:00.376Z,17.74
2017-07-30T03:23:21.590Z,17.66
2017-07-30T03:24:44.309Z,17.82
2017-07-30T03:26:05.820Z,17.77
2017-07-30T03:27:27.660Z,17.79
2017-07-30T03:28:49.789Z,17.75
2017-07-30T03:30:12.230Z,17.79
2017-07-30T03:31:33.802Z,17.92
2017-07-30T03:32:55.691Z,17.9
2017-07-30T03:34:17.837Z,17.92
2017-07-30T03:35:40.238Z,17.95
2017-07-30T03:37:02.080Z,17.95
2017-07-30T03:38:23.910Z,18.07
2017-07-30T03:39:46.045Z,18.11
2017-07-30T03:41:09.000Z,18.12
2017-07-30T03:42:30.520Z,18.29
2017-07-30T03:43:52.361Z,18.26
2017-07-30T03:45:13.993Z,18.21
2017-07-30T03:46:36.110Z,18.3
2017-07-30T03:47:57.309Z,18.36
2017-07-30T03:49:19.481Z,18.42
2017-07-30T03:50:41.110Z,18.44
2017-07-30T03:52:03.551Z,18.47
2017-07-30T03:53:25.432Z,18.5
2017-07-30T03:54:47.269Z,18.48
2017-07-30T03:56:09.430Z,18.54
2017-07-30T03:57:31.867Z,18.58
2017-07-30T03:58:54.066Z,18.6
2017-07-30T04:00:16.210Z,18.58
2017-07-30T04:01:38.465Z,18.62
2017-07-30T04:03:00.360Z,18.55
2017-07-30T04:04:22.619Z,18.57
2017-07-30T04:05:43.822Z,18.57
2017-07-30T04:07:05.640Z,18.65
2017-07-30T04:08:27.404Z,18.62
2017-07-30T04:09:49.240Z,18.72
2017-07-30T04:11:11.412Z,18.7
2017-07-30T04:12:33.760Z,18.7
2017-07-30T04:13:55.682Z,18.85
2017-07-30T04:15:17.567Z,18.78
2017-07-30T04:16:39.721Z,18.81
2017-07-30T04:18:01.326Z,18.87
2017-07-30T04:19:23.200Z,18.9
2017-07-30T04:20:45.046Z,18.92
2017-07-30T04:22:07.209Z,18.98
2017-07-30T04:23:29.040Z,18.95
2017-07-30T04:24:51.466Z,19.02
2017-07-30T04:26:12.986Z,19.06
2017-07-30T04:27:34.503Z,18.98
2017-07-30T04:28:56.659Z,19.08
2017-07-30T04:30:19.581Z,19.08
2017-07-30T04:31:41.548Z,19.14
2017-07-30T04:33:03.381Z,19.1
2017-07-30T04:34:24.927Z,19.11
2017-07-30T04:35:47.380Z,19.22
2017-07-30T04:37:08.900Z,19.31
2017-07-30T04:38:31.427Z,19.29
2017-07-30T04:39:53.562Z,19.43
2017-07-30T04:41:15.669Z,19.56
2017-07-30T04:42:37.610Z,19.65
2017-07-30T04:44:00.091Z,19.71
2017-07-30T04:45:22.240Z,19.78
2017-07-30T04:46:44.947Z,19.88
2017-07-30T04:48:07.192Z,19.98
2017-07-30T04:49:28.740Z,20.01
2017-07-30T04:50:50.591Z,19.99
2017-07-30T04:52:12.789Z,20.03
2017-07-30T04:53:34.309Z,20.05
2017-07-30T04:54:56.132Z,20.06
2017-07-30T04:56:18.091Z,20.13
2017-07-30T04:57:40.530Z,20.1
2017-07-30T04:59:02.428Z,20.17
2017-07-30T05:00:23.997Z,20.2
2017-07-30T05:01:45.840Z,20.31
2017-07-30T05:03:07.618Z,20.31
2017-07-30T05:04:29.591Z,20.33
2017-07-30T05:05:51.848Z,20.35
2017-07-30T05:07:13.680Z,20.41
2017-07-30T05:08:35.826Z,20.62
2017-07-30T05:09:57.701Z,20.64
2017-07-30T05:11:19.849Z,20.88
2017-07-30T05:12:42.119Z,21.03
2017-07-30T05:14:04.251Z,21.17
2017-07-30T05:15:25.842Z,21.38
2017-07-30T05:16:47.682Z,21.61
2017-07-30T05:18:09.539Z,21.67
2017-07-30T05:19:31.106Z,21.67
2017-07-30T05:20:53.068Z,21.98
2017-07-30T05:22:14.918Z,22.14
2017-07-30T05:23:36.183Z,22.51
2017-07-30T05:24:58.331Z,22.7
2017-07-30T05:26:20.799Z,22.72
2017-07-30T05:27:42.082Z,22.72
2017-07-30T05:29:03.938Z,22.7
2017-07-30T05:30:26.230Z,22.94
2017-07-30T05:31:48.052Z,22.92
2017-07-30T05:33:09.881Z,22.7
2017-07-30T05:34:31.422Z,22.52
2017-07-30T05:35:53.661Z,22.18
2017-07-30T05:37:15.500Z,22.14
2017-07-30T05:38:37.367Z,22.07
2017-07-30T05:39:58.598Z,22.24
2017-07-30T05:41:20.411Z,22.88
2017-07-30T05:42:42.270Z,23.5
2017-07-30T05:44:04.111Z,23.94
2017-07-30T05:45:25.955Z,23.88
2017-07-30T05:46:48.366Z,23.88
2017-07-30T05:48:10.909Z,23.69
2017-07-30T05:49:32.902Z,23.51
2017-07-30T05:50:55.046Z,23.31
2017-07-30T05:52:16.821Z,22.97
2017-07-30T05:53:38.659Z,22.58
2017-07-30T05:55:01.130Z,22.37
2017-07-30T05:56:22.430Z,22.24
2017-07-30T05:57:44.371Z,22.17
2017-07-30T05:59:06.537Z,22.02
2017-07-30T06:00:28.382Z,22.03
2017-07-30T06:01:50.991Z,22.03
2017-07-30T06:03:13.573Z,22.05
2017-07-30T06:04:35.748Z,21.96
2017-07-30T06:05:58.030Z,21.99
2017-07-30T06:07:19.879Z,22.02
2017-07-30T06:08:42.021Z,21.96
2017-07-30T06:10:04.520Z,22.05
2017-07-30T06:11:25.731Z,22
2017-07-30T06:12:47.881Z,22.15
2017-07-30T06:14:10.632Z,22.33
2017-07-30T06:15:32.490Z,22.33
2017-07-30T06:16:54.656Z,22.58
2017-07-30T06:18:16.433Z,22.7
2017-07-30T06:19:38.519Z,22.85
2017-07-30T06:21:00.468Z,23
2017-07-30T06:22:22.641Z,23.12
2017-07-30T06:23:44.770Z,23.16
2017-07-30T06:25:07.250Z,23.27
2017-07-30T06:26:29.469Z,23.31
2017-07-30T06:27:51.013Z,24.08
2017-07-30T06:29:13.183Z,25.1
2017-07-30T06:30:34.949Z,25.6
2017-07-30T06:31:56.490Z,25.83
2017-07-30T06:33:17.390Z,25.88
2017-07-30T06:34:38.919Z,25.58
2017-07-30T06:36:01.638Z,25.23
2017-07-30T06:37:23.537Z,25.09
2017-07-30T06:38:45.385Z,24.9
2017-07-30T06:40:07.532Z,24.84
2017-07-30T06:41:29.992Z,24.62
2017-07-30T06:42:51.525Z,24.46
2017-07-30T06:44:13.381Z,24.47
2017-07-30T06:45:35.536Z,24.46
2017-07-30T06:46:57.689Z,24.53
2017-07-30T06:48:20.150Z,24.57
2017-07-30T06:49:42.661Z,24.64
2017-07-30T06:51:04.186Z,24.6
2017-07-30T06:52:26.430Z,24.64
2017-07-30T06:53:48.689Z,24.83
2017-07-30T06:55:10.533Z,24.83
2017-07-30T06:56:33.134Z,24.8
2017-07-30T06:57:56.075Z,24.78
2017-07-30T06:59:18.229Z,25.6
2017-07-30T07:00:40.147Z,26.01
2017-07-30T07:02:02.322Z,26.73
2017-07-30T07:03:24.437Z,27.97
2017-07-30T07:04:45.971Z,29.33
2017-07-30T07:06:07.813Z,29.28
2017-07-30T07:07:29.967Z,28.66
2017-07-30T07:08:51.439Z,28.46
2017-07-30T07:10:13.933Z,29.15
2017-07-30T07:11:36.417Z,30.23
2017-07-30T07:12:58.307Z,31.29
2017-07-30T07:14:20.486Z,31.65
2017-07-30T07:15:42.971Z,32.67
2017-07-30T07:17:04.861Z,32.26
2017-07-30T07:18:26.710Z,31.73
2017-07-30T07:19:48.912Z,32.65
2017-07-30T07:21:11.210Z,33.06
2017-07-30T07:22:33.390Z,34.15
2017-07-30T07:23:54.917Z,34.02
2017-07-30T07:25:16.411Z,32.89
2017-07-30T07:26:38.575Z,31.89
2017-07-30T07:28:00.529Z,31.86
2017-07-30T07:29:22.689Z,31.1
2017-07-30T07:30:44.881Z,30.05
2017-07-30T07:32:06.468Z,29.52
2017-07-30T07:33:28.994Z,29.04
2017-07-30T07:34:51.160Z,28.21
2017-07-30T07:36:13.650Z,28.25
2017-07-30T07:37:35.177Z,28.52
2017-07-30T07:38:57.340Z,28.43
2017-07-30T07:40:19.497Z,28.46
2017-07-30T07:41:42.100Z,28.24
2017-07-30T07:43:04.272Z,28.02
2017-07-30T07:44:26.205Z,27.6
2017-07-30T07:45:48.101Z,27.21
2017-07-30T07:47:09.981Z,26.85
2017-07-30T07:48:32.467Z,26.73
2017-07-30T07:49:54.429Z,26.85
2017-07-30T07:51:15.654Z,26.8
2017-07-30T07:52:38.513Z,26.88
2017-07-30T07:54:00.388Z,27.22
2017-07-30T07:55:22.249Z,27.67
2017-07-30T07:56:44.444Z,28.14
2017-07-30T07:58:06.697Z,28.83
2017-07-30T07:59:28.897Z,30.69
2017-07-30T08:00:50.570Z,32.89
2017-07-30T08:02:12.419Z,33.71
2017-07-30T08:03:35.217Z,33.73
2017-07-30T08:04:57.503Z,33.73
2017-07-30T08:06:19.674Z,33.9
2017-07-30T08:07:42.259Z,33.68
2017-07-30T08:09:04.061Z,33.53
2017-07-30T08:10:26.543Z,34.09
2017-07-30T08:11:48.410Z,34.49
2017-07-30T08:13:10.577Z,34.05
2017-07-30T08:14:33.090Z,33.42
2017-07-30T08:15:55.277Z,32.7
2017-07-30T08:17:17.770Z,31.89
2017-07-30T08:18:39.682Z,31.17
2017-07-30T08:20:02.208Z,30.64
2017-07-30T08:21:24.830Z,30.42
2017-07-30T08:22:46.360Z,29.97
2017-07-30T08:24:08.846Z,29.97
2017-07-30T08:25:30.681Z,30.24
2017-07-30T08:26:52.271Z,30.23
2017-07-30T08:28:14.488Z,30.37
2017-07-30T08:29:36.332Z,29.95
2017-07-30T08:30:58.546Z,29.97
2017-07-30T08:32:20.720Z,29.74
2017-07-30T08:33:42.881Z,29.65
2017-07-30T08:35:04.729Z,29.52
2017-07-30T08:36:26.986Z,29.49
2017-07-30T08:37:48.836Z,29.6
2017-07-30T08:39:11.009Z,29.8
2017-07-30T08:40:32.919Z,29.8
2017-07-30T08:41:55.667Z,29.98
2017-07-30T08:43:17.545Z,30.31
2017-07-30T08:44:40.030Z,30.65
2017-07-30T08:46:02.332Z,30.72
2017-07-30T08:47:24.727Z,30.72
2017-07-30T08:48:46.308Z,30.62
2017-07-30T08:50:08.159Z,30.62
2017-07-30T08:51:30.337Z,30.57
2017-07-30T08:52:52.429Z,30.39
2017-07-30T08:54:14.920Z,30.34
2017-07-30T08:55:36.791Z,30.24
2017-07-30T08:56:59.076Z,30.2
2017-07-30T08:58:20.900Z,30.11
2017-07-30T08:59:43.458Z,30.15
2017-07-30T09:01:05.306Z,30.08
2017-07-30T09:02:27.809Z,29.8
2017-07-30T09:03:50.229Z,29.95
2017-07-30T09:05:12.719Z,30.02
2017-07-30T09:06:34.880Z,30.26
2017-07-30T09:07:57.378Z,30.34
2017-07-30T09:09:19.276Z,30.37
2017-07-30T09:10:40.829Z,30.32
2017-07-30T09:12:03.310Z,30.46
2017-07-30T09:13:25.167Z,30.7
2017-07-30T09:14:47.734Z,30.55
2017-07-30T09:16:09.959Z,30.6
2017-07-30T09:17:31.929Z,30.94
2017-07-30T09:18:54.120Z,31.06
2017-07-30T09:20:16.467Z,30.79
2017-07-30T09:21:38.321Z,30.54
2017-07-30T09:23:00.478Z,30.26
2017-07-30T09:24:22.409Z,29.97
2017-07-30T09:25:44.179Z,29.8
2017-07-30T09:27:06.335Z,29.79
2017-07-30T09:28:28.191Z,29.63
2017-07-30T09:29:50.091Z,29.49
2017-07-30T09:31:12.541Z,29.18
2017-07-30T09:32:34.753Z,29.02
2017-07-30T09:33:56.908Z,28.95
2017-07-30T09:35:19.088Z,28.93
2017-07-30T09:36:41.040Z,29.15
2017-07-30T09:38:03.201Z,29.46
2017-07-30T09:39:25.112Z,29.57
2017-07-30T09:40:47.608Z,29.94
2017-07-30T09:42:10.058Z,30.02
2017-07-30T09:43:32.571Z,30.04
2017-07-30T09:44:55.186Z,30.29
2017-07-30T09:46:17.369Z,30.43
2017-07-30T09:47:39.809Z,30.26
2017-07-30T09:49:02.341Z,30.42
2017-07-30T09:50:25.028Z,30.67
2017-07-30T09:51:47.555Z,30.91
2017-07-30T09:53:09.989Z,30.88
2017-07-30T09:54:32.532Z,30.7
2017-07-30T09:55:54.722Z,30.76
2017-07-30T09:57:16.925Z,30.6
2017-07-30T09:58:39.699Z,30.49
2017-07-30T10:00:01.880Z,30.65
2017-07-30T10:01:24.120Z,30.83
2017-07-30T10:02:46.459Z,30.76
2017-07-30T10:04:08.647Z,30.75
2017-07-30T10:05:30.502Z,30.61
2017-07-30T10:06:52.387Z,30.49
2017-07-30T10:08:14.953Z,30.31
2017-07-30T10:09:36.812Z,30.27
2017-07-30T10:10:59.070Z,30
2017-07-30T10:12:21.284Z,29.7
2017-07-30T10:13:43.778Z,29.7
2017-07-30T10:15:06.301Z,29.74
2017-07-30T10:16:28.829Z,29.64
2017-07-30T10:17:50.979Z,29.76
2017-07-30T10:19:13.129Z,29.61
2017-07-30T10:20:35.897Z,29.57
2017-07-30T10:21:58.080Z,29.53
2017-07-30T10:23:20.573Z,29.42
2017-07-30T10:24:42.761Z,29.34
2017-07-30T10:26:05.270Z,29.23
2017-07-30T10:27:27.111Z,28.89
2017-07-30T10:28:49.552Z,28.56
2017-07-30T10:30:12.139Z,28.41
2017-07-30T10:31:34.280Z,28.37
2017-07-30T10:32:56.449Z,28.34
2017-07-30T10:34:18.639Z,28.66
2017-07-30T10:35:40.510Z,29.05
2017-07-30T10:37:02.371Z,29.04
2017-07-30T10:38:24.571Z,28.9
2017-07-30T10:39:47.149Z,28.56
2017-07-30T10:41:09.016Z,28.8
2017-07-30T10:42:31.498Z,29.09
2017-07-30T10:43:53.677Z,29.16
2017-07-30T10:45:15.849Z,29.28
2017-07-30T10:46:37.698Z,29.28
2017-07-30T10:47:59.488Z,29.15
2017-07-30T10:49:21.347Z,29.21
2017-07-30T10:50:43.237Z,29.41
2017-07-30T10:52:05.759Z,29.57
2017-07-30T10:53:28.207Z,29.89
2017-07-30T10:54:50.378Z,30.16
2017-07-30T10:56:12.900Z,30.29
2017-07-30T10:57:35.149Z,30.46
2017-07-30T10:58:57.399Z,30.55
2017-07-30T11:00:19.570Z,30.39
2017-07-30T11:01:41.822Z,30.42
2017-07-30T11:03:04.112Z,30.27
2017-07-30T11:04:26.850Z,30.17
2017-07-30T11:05:49.339Z,29.98
2017-07-30T11:07:11.624Z,29.92
2017-07-30T11:08:33.939Z,29.82
2017-07-30T11:09:56.720Z,29.46
2017-07-30T11:11:18.996Z,29.3
2017-07-30T11:12:40.859Z,29.16
2017-07-30T11:14:03.406Z,29.27
2017-07-30T11:15:25.891Z,29.23
2017-07-30T11:16:48.312Z,29.16
2017-07-30T11:18:10.938Z,29.09
2017-07-30T11:19:33.117Z,29.27
2017-07-30T11:20:55.931Z,29.3
2017-07-30T11:22:18.512Z,29.43
2017-07-30T11:23:41.023Z,29.52
2017-07-30T11:25:03.535Z,29.3
2017-07-30T11:26:25.757Z,29.48
2017-07-30T11:27:48.390Z,29.61
2017-07-30T11:29:10.590Z,29.78
2017-07-30T11:30:33.085Z,29.79
2017-07-30T11:31:55.823Z,29.64
2017-07-30T11:33:18.090Z,29.57
2017-07-30T11:34:40.580Z,29.58
2017-07-30T11:36:02.152Z,29.55
2017-07-30T11:37:24.600Z,29.65
2017-07-30T11:38:46.440Z,29.78
2017-07-30T11:40:08.321Z,29.89
2017-07-30T11:41:30.511Z,30
2017-07-30T11:42:53.000Z,30.04
2017-07-30T11:44:14.887Z,29.97
2017-07-30T11:45:37.114Z,29.78
2017-07-30T11:46:59.793Z,29.85
2017-07-30T11:48:21.591Z,29.83
2017-07-30T11:49:43.765Z,29.97
2017-07-30T11:51:05.741Z,29.98
2017-07-30T11:52:27.624Z,29.86
2017-07-30T11:53:50.089Z,29.9
2017-07-30T11:55:12.752Z,30.01
2017-07-30T11:56:35.250Z,30.23
2017-07-30T11:57:57.409Z,30.23
2017-07-30T11:59:19.948Z,30.42
2017-07-30T12:00:42.493Z,30.58
2017-07-30T12:02:05.038Z,30.67
2017-07-30T12:03:27.300Z,30.72
2017-07-30T12:04:49.468Z,30.7
2017-07-30T12:06:11.673Z,30.32
2017-07-30T12:07:34.199Z,30.24
2017-07-30T12:08:56.806Z,30.26
2017-07-30T12:10:19.640Z,30.01
2017-07-30T12:11:42.143Z,29.85
2017-07-30T12:13:03.999Z,29.78
2017-07-30T12:14:25.979Z,29.78
2017-07-30T12:15:48.756Z,29.8
2017-07-30T12:17:11.239Z,29.78
2017-07-30T12:18:33.422Z,29.82
2017-07-30T12:19:55.598Z,29.83
2017-07-30T12:21:18.092Z,29.85
2017-07-30T12:22:39.963Z,29.79
2017-07-30T12:24:02.481Z,29.8
2017-07-30T12:25:24.682Z,29.92
2017-07-30T12:26:47.467Z,29.92
2017-07-30T12:28:09.855Z,29.95
2017-07-30T12:29:32.080Z,30.02
2017-07-30T12:30:54.294Z,29.89
2017-07-30T12:32:16.404Z,30.01
2017-07-30T12:33:38.720Z,29.86
2017-07-30T12:35:01.242Z,29.8
2017-07-30T12:36:23.545Z,29.85
2017-07-30T12:37:45.992Z,29.94
2017-07-30T12:39:08.201Z,30
2017-07-30T12:40:30.881Z,29.98
2017-07-30T12:41:53.380Z,30
2017-07-30T12:43:16.142Z,30.23
2017-07-30T12:44:38.709Z,30.23
2017-07-30T12:46:01.289Z,30.02
2017-07-30T12:47:23.780Z,29.98
2017-07-30T12:48:46.262Z,29.94
2017-07-30T12:50:08.754Z,29.85
2017-07-30T12:51:31.367Z,29.78
2017-07-30T12:52:53.881Z,29.6
2017-07-30T12:54:15.990Z,29.24
2017-07-30T12:55:38.591Z,29.31
2017-07-30T12:57:01.080Z,29.15
2017-07-30T12:58:23.590Z,29.19
2017-07-30T12:59:46.081Z,29.15
2017-07-30T13:01:08.270Z,29.02
2017-07-30T13:02:30.460Z,29.11
2017-07-30T13:03:52.939Z,29.28
2017-07-30T13:05:15.162Z,29.26
2017-07-30T13:06:36.698Z,29.39
2017-07-30T13:07:58.580Z,29.6
2017-07-30T13:09:20.788Z,29.68
2017-07-30T13:10:43.280Z,29.79
2017-07-30T13:12:05.264Z,29.76
2017-07-30T13:13:27.130Z,29.63
2017-07-30T13:14:49.621Z,29.61
2017-07-30T13:16:12.438Z,29.49
2017-07-30T13:17:34.619Z,29.31
2017-07-30T13:18:57.132Z,29.09
2017-07-30T13:20:19.659Z,28.93
2017-07-30T13:21:42.436Z,28.89
2017-07-30T13:23:04.392Z,29.02
2017-07-30T13:24:26.569Z,28.98
2017-07-30T13:25:48.759Z,29.33
2017-07-30T13:27:11.221Z,29.52
2017-07-30T13:28:33.697Z,29.6
2017-07-30T13:29:55.879Z,29.58
2017-07-30T13:31:17.762Z,29.52
2017-07-30T13:32:40.253Z,29.31
2017-07-30T13:34:02.742Z,29.21
2017-07-30T13:35:25.009Z,29.21
2017-07-30T13:36:47.245Z,29.34
2017-07-30T13:38:10.115Z,29.18
2017-07-30T13:39:32.414Z,29.14
2017-07-30T13:40:54.592Z,29.12
2017-07-30T13:42:16.507Z,29.09
2017-07-30T13:43:38.639Z,29.26
2017-07-30T13:45:00.216Z,29.37
2017-07-30T13:46:22.399Z,29.61
2017-07-30T13:47:44.589Z,29.68
2017-07-30T13:49:07.390Z,29.58
2017-07-30T13:50:29.588Z,29.49
2017-07-30T13:51:51.778Z,29.51
2017-07-30T13:53:13.978Z,29.61
2017-07-30T13:54:36.134Z,29.49
2017-07-30T13:55:58.628Z,29.43
2017-07-30T13:57:20.578Z,29.48
2017-07-30T13:58:42.826Z,29.31
2017-07-30T14:00:05.602Z,29.18
2017-07-30T14:01:27.777Z,29.14
2017-07-30T14:02:49.626Z,29.34
2017-07-30T14:04:11.571Z,29.37
2017-07-30T14:05:34.076Z,29.53
2017-07-30T14:06:56.280Z,29.53
2017-07-30T14:08:18.570Z,29.57
2017-07-30T14:09:41.098Z,29.46
2017-07-30T14:11:03.909Z,29.34
2017-07-30T14:12:26.418Z,29.53
2017-07-30T14:13:48.601Z,29.76
2017-07-30T14:15:10.209Z,30.07
2017-07-30T14:16:33.131Z,30.02
2017-07-30T14:17:55.349Z,30.05
2017-07-30T14:19:17.670Z,29.9
2017-07-30T14:20:39.865Z,29.79
2017-07-30T14:22:02.291Z,29.64
2017-07-30T14:23:24.505Z,29.51
2017-07-30T14:24:47.055Z,29.46
2017-07-30T14:26:09.291Z,29.34
2017-07-30T14:27:31.721Z,29.26
2017-07-30T14:28:54.319Z,29.19
2017-07-30T14:30:16.629Z,29.04
2017-07-30T14:31:38.828Z,28.92
2017-07-30T14:33:01.287Z,28.71
2017-07-30T14:34:23.255Z,28.59
2017-07-30T14:35:45.777Z,28.34
2017-07-30T14:37:07.719Z,28.06
2017-07-30T14:38:29.938Z,27.99
2017-07-30T14:39:52.156Z,27.97
2017-07-30T14:41:14.649Z,28.02
2017-07-30T14:42:36.633Z,28.09
2017-07-30T14:43:59.424Z,28.15
2017-07-30T14:45:21.617Z,27.94
2017-07-30T14:46:44.139Z,27.94
2017-07-30T14:48:06.682Z,27.93
2017-07-30T14:49:29.223Z,28.03
2017-07-30T14:50:51.718Z,27.99
2017-07-30T14:52:14.259Z,28.07
2017-07-30T14:53:36.763Z,28.11
2017-07-30T14:54:59.331Z,28.11
2017-07-30T14:56:20.858Z,28.21
2017-07-30T14:57:43.389Z,28.14
2017-07-30T14:59:05.592Z,28.18
2017-07-30T15:00:28.351Z,28.25
2017-07-30T15:01:50.374Z,28.19
2017-07-30T15:03:12.226Z,28.33
2017-07-30T15:04:34.419Z,28.3
2017-07-30T15:05:57.232Z,28.21
2017-07-30T15:07:19.737Z,28.21
2017-07-30T15:08:41.921Z,28.22
2017-07-30T15:10:04.131Z,28.21
2017-07-30T15:11:26.616Z,28
2017-07-30T15:12:49.209Z,27.62
2017-07-30T15:14:11.440Z,27.14
2017-07-30T15:15:33.299Z,27.1
2017-07-30T15:16:55.847Z,27.19
2017-07-30T15:18:17.732Z,27.36
2017-07-30T15:19:39.599Z,27.37
2017-07-30T15:21:01.773Z,27.19
2017-07-30T15:22:24.199Z,27.28
2017-07-30T15:23:46.797Z,27.54
2017-07-30T15:25:09.034Z,27.63
2017-07-30T15:26:31.577Z,27.32
2017-07-30T15:27:54.298Z,27.09
2017-07-30T15:29:16.848Z,26.77
2017-07-30T15:30:39.518Z,26.45
2017-07-30T15:32:01.424Z,26.02
2017-07-30T15:33:23.586Z,25.98
2017-07-30T15:34:45.148Z,25.82
2017-07-30T15:36:07.657Z,25.79
2017-07-30T15:37:29.830Z,25.83
2017-07-30T15:38:52.698Z,25.88
2017-07-30T15:40:14.686Z,25.98
2017-07-30T15:41:36.889Z,25.95
2017-07-30T15:42:59.442Z,25.99
2017-07-30T15:44:21.860Z,26.25
2017-07-30T15:45:44.092Z,26.67
2017-07-30T15:47:06.590Z,26.92
2017-07-30T15:48:29.168Z,27.21
2017-07-30T15:49:52.014Z,27.24
2017-07-30T15:51:14.256Z,27.21
2017-07-30T15:52:35.783Z,26.89
2017-07-30T15:53:57.634Z,26.72
2017-07-30T15:55:19.893Z,26.54
2017-07-30T15:56:43.241Z,26.33
2017-07-30T15:58:05.798Z,26.17
2017-07-30T15:59:28.302Z,26.05
2017-07-30T16:00:50.463Z,26.02
2017-07-30T16:02:12.034Z,25.83
2017-07-30T16:03:34.289Z,25.73
2017-07-30T16:04:56.496Z,25.61
2017-07-30T16:06:19.011Z,25.57
2017-07-30T16:07:41.190Z,25.57
2017-07-30T16:09:03.359Z,25.55
2017-07-30T16:10:25.668Z,25.73
2017-07-30T16:11:48.508Z,25.97
2017-07-30T16:13:10.686Z,25.92
2017-07-30T16:14:33.197Z,25.9
2017-07-30T16:15:55.116Z,25.87
2017-07-30T16:17:17.938Z,25.61
2017-07-30T16:18:40.494Z,25.43
2017-07-30T16:20:02.691Z,25.09
2017-07-30T16:21:25.211Z,24.98
2017-07-30T16:22:47.961Z,24.6
2017-07-30T16:24:10.459Z,24.37
2017-07-30T16:25:32.980Z,24.3
2017-07-30T16:26:55.637Z,24.22
2017-07-30T16:28:18.561Z,24.21
2017-07-30T16:29:40.717Z,23.97
2017-07-30T16:31:03.061Z,23.76
2017-07-30T16:32:25.577Z,23.61
2017-07-30T16:33:48.149Z,23.61
2017-07-30T16:35:10.458Z,23.63
2017-07-30T16:36:33.037Z,23.55
2017-07-30T16:37:55.563Z,23.54
2017-07-30T16:39:18.327Z,23.48
2017-07-30T16:40:40.837Z,23.51
2017-07-30T16:42:03.325Z,23.48
2017-07-30T16:43:25.260Z,23.51
2017-07-30T16:44:48.096Z,23.53
2017-07-30T16:46:10.631Z,23.57
2017-07-30T16:47:33.140Z,23.53
2017-07-30T16:48:55.296Z,23.47
2017-07-30T16:50:18.058Z,23.32
2017-07-30T16:51:40.280Z,23.28
2017-07-30T16:53:02.614Z,23.17
2017-07-30T16:54:24.809Z,23.09
2017-07-30T16:55:47.646Z,23.15
2017-07-30T16:57:09.488Z,23.16
2017-07-30T16:58:32.011Z,23.17
2017-07-30T16:59:54.273Z,23.33
2017-07-30T17:01:16.461Z,23.33
2017-07-30T17:02:38.998Z,23.12
2017-07-30T17:04:01.519Z,22.97
2017-07-30T17:05:23.690Z,22.98
2017-07-30T17:06:46.185Z,23
2017-07-30T17:08:08.360Z,23.13
2017-07-30T17:09:30.559Z,23.15
2017-07-30T17:10:53.069Z,23
2017-07-30T17:12:15.831Z,22.88
2017-07-30T17:13:38.027Z,22.79
2017-07-30T17:15:00.542Z,22.62
2017-07-30T17:16:22.751Z,22.61
2017-07-30T17:17:45.221Z,22.45
2017-07-30T17:19:07.459Z,22.3
2017-07-30T17:20:29.670Z,22.2
2017-07-30T17:21:52.202Z,22.12
2017-07-30T17:23:14.730Z,22.12
2017-07-30T17:24:36.689Z,22.12
2017-07-30T17:25:58.949Z,22.17
2017-07-30T17:27:21.166Z,22.2
2017-07-30T17:28:43.600Z,22.24
2017-07-30T17:30:05.918Z,22.3
2017-07-30T17:31:28.528Z,22.22
2017-07-30T17:32:50.727Z,22.22
2017-07-30T17:34:13.529Z,22.22
2017-07-30T17:35:35.739Z,22.24
2017-07-30T17:36:57.973Z,22.21
2017-07-30T17:38:20.265Z,22.22
2017-07-30T17:39:43.107Z,22.25
2017-07-30T17:41:05.338Z,22.3
2017-07-30T17:42:27.825Z,22.27